Time;durP1;ratioP1;P1;durP2;ratioP2;P2;SDS_P1;SDS_P2;PMS_P1;PMS_P2;Temp;Humidity;BMP_temperature;BMP_pressure;BME280_temperature;BME280_humidity;BME280_pressure;Samples;Min_cycle;Max_cycle;Signal;HPM_P1;HPM_P2
2024/04/16 00:02:01;;;;;;;4.63;4.40;;;;;;;7.18;79.17;98974.31;5416048;26;20236;-76
2024/04/16 00:04:26;;;;;;;4.77;4.40;;;;;;;7.20;78.61;98959.56;5416396;26;20270;-77
2024/04/16 00:06:54;;;;;;;4.23;3.93;;;;;;;7.45;78.29;98957.09;5416296;26;20237;-77
2024/04/16 00:09:20;;;;;;;4.90;4.60;;;;;;;7.51;77.82;98962.09;5415526;26;20279;-76
2024/04/16 00:11:48;;;;;;;4.90;4.60;;;;;;;7.41;78.15;98965.00;5415972;26;20235;-76
2024/04/16 00:14:13;;;;;;;5.20;4.73;;;;;;;7.33;78.71;98947.06;5416052;26;20227;-77
2024/04/16 00:16:44;;;;;;;5.40;5.00;;;;;;;7.22;79.62;98934.41;5429791;26;20287;-77
2024/04/16 00:19:09;;;;;;;5.30;4.90;;;;;;;7.35;79.16;98940.94;5429076;26;20282;-75
2024/04/16 00:21:37;;;;;;;5.30;5.00;;;;;;;7.45;78.34;98935.47;5424948;26;20782;-76
2024/04/16 00:24:03;;;;;;;4.77;4.47;;;;;;;7.61;78.05;98934.13;5418433;26;20236;-77
2024/04/16 00:26:31;;;;;;;5.17;4.87;;;;;;;7.33;78.51;98950.53;5426649;26;20266;-76
2024/04/16 00:28:57;;;;;;;5.33;5.03;;;;;;;7.11;78.77;98947.69;5415577;26;20641;-77
2024/04/16 00:31:25;;;;;;;5.07;4.70;;;;;;;7.06;79.10;98933.16;5415810;26;20735;-78
2024/04/16 00:33:53;;;;;;;4.87;4.57;;;;;;;7.35;78.75;98921.91;5416133;26;20582;-75
2024/04/16 00:36:22;;;;;;;4.07;3.87;;;;;;;7.20;78.56;98933.63;5415830;26;20597;-77
2024/04/16 00:38:47;;;;;;;4.57;4.27;;;;;;;7.29;79.21;98922.94;5415719;26;20685;-77
2024/04/16 00:41:15;;;;;;;4.83;4.53;;;;;;;6.92;80.83;98915.41;5415258;26;20238;-76
2024/04/16 00:43:40;;;;;;;5.07;4.63;;;;;;;6.87;81.48;98889.59;5415582;26;20240;-77
2024/04/16 00:46:09;;;;;;;4.83;4.47;;;;;;;7.06;82.22;98858.78;5415550;26;20281;-77
2024/04/16 00:48:35;;;;;;;4.47;4.17;;;;;;;6.80;83.47;98840.53;5415773;26;20777;-77
2024/04/16 00:51:06;;;;;;;4.93;4.53;;;;;;;6.65;84.02;98821.94;5415272;26;20278;-76
2024/04/16 00:53:32;;;;;;;5.03;4.70;;;;;;;7.01;83.54;98793.19;5414439;26;20237;-76
2024/04/16 00:56:01;;;;;;;4.23;3.93;;;;;;;6.88;83.77;98792.75;5415500;26;20227;-76
2024/04/16 00:58:27;;;;;;;4.40;4.03;;;;;;;6.59;86.42;98778.06;5415491;26;20258;-76
2024/04/16 01:00:55;;;;;;;4.17;3.87;;;;;;;6.72;87.00;98743.09;5415030;26;20283;-77
2024/04/16 01:03:21;;;;;;;4.20;3.90;;;;;;;6.83;86.91;98718.56;5415648;26;20275;-77
2024/04/16 01:05:50;;;;;;;4.17;3.83;;;;;;;7.08;86.21;98703.91;5414586;26;20308;-77
2024/04/16 01:08:18;;;;;;;3.60;3.30;;;;;;;6.83;86.42;98711.63;5415442;26;20233;-76
2024/04/16 01:10:46;;;;;;;3.40;3.20;;;;;;;6.89;85.74;98705.41;5415608;26;20700;-77
2024/04/16 01:13:12;;;;;;;3.13;2.93;;;;;;;6.87;86.20;98700.25;5416053;26;20318;-76
2024/04/16 01:15:40;;;;;;;3.43;2.50;;;;;;;7.13;84.85;98696.81;5413947;26;20329;-76
2024/04/16 01:18:07;;;;;;;2.00;1.90;;;;;;;7.00;84.36;98726.66;5415391;26;20238;-76
2024/04/16 01:20:35;;;;;;;2.07;1.90;;;;;;;6.85;83.58;98735.75;5415688;26;20232;-76
2024/04/16 01:23:03;;;;;;;1.77;1.60;;;;;;;6.81;82.65;98767.03;5414768;26;20234;-76
2024/04/16 01:25:35;;;;;;;1.63;1.53;;;;;;;6.69;83.11;98778.63;5415294;26;20735;-76
2024/04/16 01:28:00;;;;;;;1.43;1.20;;;;;;;6.57;82.36;98777.25;5414656;26;20228;-75
2024/04/16 01:30:28;;;;;;;3.43;1.30;;;;;;;6.23;83.61;98787.75;5414976;26;20283;-76
2024/04/16 01:32:54;;;;;;;1.10;1.10;;;;;;;6.11;83.23;98778.56;5414790;26;20240;-75
2024/04/16 01:35:22;;;;;;;1.00;1.00;;;;;;;5.85;84.29;98782.69;5415351;26;20236;-76
2024/04/16 01:37:47;;;;;;;2.00;1.90;;;;;;;6.25;84.70;98754.88;5415175;26;20236;-76
2024/04/16 01:40:18;;;;;;;1.50;1.40;;;;;;;6.34;84.87;98733.84;5413436;26;20278;-76
2024/04/16 01:42:43;;;;;;;1.70;1.60;;;;;;;6.25;83.99;98747.94;5415233;26;20232;-76
2024/04/16 01:45:11;;;;;;;1.63;1.53;;;;;;;6.63;83.80;98730.41;5414852;26;20579;-76
2024/04/16 01:47:37;;;;;;;1.77;1.43;;;;;;;6.94;82.35;98742.44;5415196;26;20228;-76
2024/04/16 01:50:05;;;;;;;1.10;1.10;;;;;;;6.98;81.81;98767.38;5414126;26;20270;-76
2024/04/16 01:52:31;;;;;;;1.20;1.20;;;;;;;7.11;81.50;98786.81;5413262;26;20237;-77
2024/04/16 01:54:59;;;;;;;1.70;1.60;;;;;;;7.34;80.64;98791.28;5413529;26;20248;-76
2024/04/16 01:57:27;;;;;;;1.50;1.40;;;;;;;7.47;79.75;98816.84;5414050;26;20259;-76
2024/04/16 01:59:55;;;;;;;1.63;1.53;;;;;;;7.12;80.48;98832.63;5414311;26;20275;-77
2024/04/16 02:02:20;;;;;;;1.83;1.73;;;;;;;7.33;80.63;98830.25;5427611;26;20613;-76
2024/04/16 02:04:48;;;;;;;1.70;1.60;;;;;;;7.42;79.95;98845.56;5414640;26;20236;-76
2024/04/16 02:07:13;;;;;;;1.70;1.60;;;;;;;7.34;79.65;98850.16;5414312;26;20233;-76
2024/04/16 02:09:41;;;;;;;1.70;1.60;;;;;;;7.30;80.44;98841.59;5413066;26;20300;-76
2024/04/16 02:12:07;;;;;;;1.70;1.60;;;;;;;6.73;81.56;98848.50;5414302;26;20236;-76
2024/04/16 02:14:38;;;;;;;2.03;1.50;;;;;;;6.79;82.73;98803.38;5424349;26;20493;-76
2024/04/16 02:17:03;;;;;;;1.83;1.60;;;;;;;6.79;83.22;98787.81;5414538;26;20663;-76
2024/04/16 02:19:31;;;;;;;2.00;1.90;;;;;;;6.84;82.29;98766.94;5414733;26;20240;-76
2024/04/16 02:21:57;;;;;;;2.47;2.30;;;;;;;6.38;83.31;98779.50;5414484;26;20238;-76
2024/04/16 02:24:25;;;;;;;2.40;2.20;;;;;;;6.74;83.67;98733.50;5398898;26;20284;-77
2024/04/16 02:26:50;;;;;;;2.30;2.20;;;;;;;6.64;82.96;98741.59;5414748;26;20237;-76
2024/04/16 02:29:18;;;;;;;2.80;2.60;;;;;;;6.61;82.93;98754.69;5413029;26;20274;-76
2024/04/16 02:31:46;;;;;;;3.00;2.80;;;;;;;6.59;82.16;98770.28;5414761;26;20231;-76
2024/04/16 02:34:14;;;;;;;3.53;3.20;;;;;;;6.48;83.11;98757.63;5413461;26;20233;-76
2024/04/16 02:36:40;;;;;;;3.43;3.23;;;;;;;6.76;83.55;98720.50;5415084;26;20233;-77
2024/04/16 02:39:08;;;;;;;4.10;3.80;;;;;;;6.62;84.91;98707.09;5412659;26;20290;-76
2024/04/16 02:41:33;;;;;;;4.10;3.80;;;;;;;6.72;84.47;98686.03;5414029;26;20770;-76
2024/04/16 02:44:01;;;;;;;4.27;3.83;;;;;;;6.85;83.93;98703.81;5413246;26;20266;-75
2024/04/16 02:46:27;;;;;;;4.20;3.60;;;;;;;6.92;84.22;98669.00;5413166;26;20267;-75
2024/04/16 02:48:57;;;;;;;4.87;4.53;;;;;;;6.79;85.08;98663.34;5414404;26;20228;-76
2024/04/16 02:51:23;;;;;;;5.90;5.40;;;;;;;7.00;84.86;98650.56;5418721;26;20775;-76
2024/04/16 02:53:51;;;;;;;5.53;5.00;;;;;;;7.09;83.85;98656.31;5421900;26;20238;-75
2024/04/16 02:56:17;;;;;;;6.80;6.20;;;;;;;7.18;83.81;98662.94;5414151;26;20247;-76
2024/04/16 02:58:46;;;;;;;6.87;6.33;;;;;;;7.07;84.35;98650.31;5413742;26;20249;-76
2024/04/16 03:01:11;;;;;;;6.33;5.33;;;;;;;7.03;85.02;98650.47;5412565;26;20807;-76
2024/04/16 03:03:40;;;;;;;9.50;6.33;;;;;;;7.18;84.15;98644.78;5414248;26;20240;-76
2024/04/16 03:06:08;;;;;;;6.83;6.13;;;;;;;7.03;84.61;98632.31;5415294;26;20229;-75
2024/04/16 03:08:36;;;;;;;6.97;6.30;;;;;;;6.89;84.91;98631.03;5416093;26;20591;-75
2024/04/16 03:11:02;;;;;;;10.13;7.17;;;;;;;7.02;85.75;98617.66;5416080;26;20237;-76
2024/04/16 03:13:30;;;;;;;8.57;7.63;;;;;;;6.87;85.10;98624.19;5416957;26;20640;-75
2024/04/16 03:16:05;;;;;;;8.70;7.47;;;;;;;6.78;84.81;98633.16;5416679;26;20232;-76
2024/04/16 03:18:33;;;;;;;8.97;8.17;;;;;;;6.54;85.00;98637.34;5415092;26;20239;-76
2024/04/16 03:20:59;;;;;;;10.13;7.10;;;;;;;6.84;84.85;98629.47;5417686;26;20256;-75
2024/04/16 03:23:29;;;;;;;8.20;6.87;;;;;;;6.90;84.47;98635.34;5416017;26;20229;-76
2024/04/16 03:25:55;;;;;;;8.10;6.87;;;;;;;7.02;84.52;98635.84;5416359;26;20268;-76
2024/04/16 03:28:23;;;;;;;8.60;7.00;;;;;;;7.11;83.69;98653.66;5416650;26;20782;-76
2024/04/16 03:30:51;;;;;;;7.73;7.00;;;;;;;7.09;83.11;98671.88;5416659;26;21023;-76
2024/04/16 03:33:19;;;;;;;6.77;6.17;;;;;;;7.30;82.29;98682.44;5415583;26;20240;-76
2024/04/16 03:35:51;;;;;;;7.83;7.07;;;;;;;7.42;81.52;98694.16;5415990;26;20262;-76
2024/04/16 03:38:19;;;;;;;7.93;6.20;;;;;;;7.44;81.18;98718.31;5415310;26;20279;-76
2024/04/16 03:40:57;;;;;;;7.83;5.73;;;;;;;7.52;80.95;98740.50;5416335;26;20241;-76
2024/04/16 03:43:26;;;;;;;7.93;6.10;;;;;;;7.52;80.81;98756.09;5431392;26;20327;-76
2024/04/16 03:45:52;;;;;;;7.70;6.43;;;;;;;7.47;80.26;98770.97;5415604;26;20233;-76
2024/04/16 03:48:20;;;;;;;13.67;5.83;;;;;;;7.41;80.05;98785.88;5416115;26;20287;-76
2024/04/16 03:50:48;;;;;;;9.27;5.93;;;;;;;7.39;80.75;98782.50;5416570;26;20236;-76
2024/04/16 03:53:16;;;;;;;7.10;5.70;;;;;;;7.54;80.77;98774.22;5416026;26;20258;-76
2024/04/16 03:55:43;;;;;;;6.17;4.83;;;;;;;7.38;80.12;98792.03;5415348;26;20260;-76
2024/04/16 03:58:14;;;;;;;6.97;5.40;;;;;;;7.26;79.85;98810.59;5415208;26;20273;-76
2024/04/16 04:03:27;;;;;;;6.17;4.67;;;;;;;7.42;79.77;98810.97;5417497;26;20773;-76
2024/04/16 04:05:52;;;;;;;8.40;4.90;;;;;;;7.68;79.75;98805.75;5429946;26;20233;-77
2024/04/16 04:08:22;;;;;;;8.10;4.97;;;;;;;7.80;79.21;98811.44;5428207;26;20290;-77
2024/04/16 04:10:47;;;;;;;6.97;5.23;;;;;;;7.70;78.60;98835.13;5438231;26;20266;-76
2024/04/16 04:13:18;;;;;;;6.83;4.60;;;;;;;7.68;78.27;98838.66;5437075;26;20841;-76
2024/04/16 04:15:43;;;;;;;6.57;4.33;;;;;;;7.35;77.93;98862.22;5414670;26;20265;-76
2024/04/16 04:18:11;;;;;;;6.23;4.30;;;;;;;7.34;78.70;98844.94;5416169;26;20276;-76
2024/04/16 04:20:40;;;;;;;5.63;4.10;;;;;;;7.46;79.63;98823.78;5416919;26;20232;-76
2024/04/16 04:23:05;;;;;;;4.53;3.73;;;;;;;7.64;79.46;98814.53;5416055;26;20346;-76
2024/04/16 04:25:33;;;;;;;9.77;4.57;;;;;;;7.68;79.07;98825.69;5416022;26;20237;-76
2024/04/16 04:28:01;;;;;;;6.67;4.43;;;;;;;7.76;78.92;98824.53;5417025;26;20235;-76
2024/04/16 04:30:30;;;;;;;6.20;4.00;;;;;;;7.81;77.93;98845.16;5415935;26;20243;-76
2024/04/16 04:32:58;;;;;;;10.53;4.10;;;;;;;7.87;78.08;98857.94;5415783;26;20233;-76
2024/04/16 04:35:24;;;;;;;4.97;4.00;;;;;;;7.91;77.17;98862.13;5415001;26;20230;-75
2024/04/16 04:37:52;;;;;;;4.63;3.87;;;;;;;7.80;77.19;98881.56;5414979;26;20281;-76
2024/04/16 04:40:17;;;;;;;6.80;3.10;;;;;;;7.93;76.79;98888.06;5415387;26;20237;-77
2024/04/16 04:42:45;;;;;;;5.63;3.37;;;;;;;7.63;77.04;98898.56;5415989;26;20266;-76
2024/04/16 04:45:12;;;;;;;10.00;3.27;;;;;;;7.70;77.09;98897.44;5414494;26;20333;-76
2024/04/16 04:47:44;;;;;;;4.70;3.10;;;;;;;7.65;77.01;98885.50;5414192;26;20259;-76
2024/04/16 04:50:09;;;;;;;4.53;3.10;;;;;;;7.70;76.74;98902.63;5415068;26;20632;-75
2024/04/16 04:52:38;;;;;;;6.50;2.83;;;;;;;7.66;76.79;98884.63;5414714;26;20233;-76
2024/04/16 04:55:04;;;;;;;4.90;2.87;;;;;;;7.66;76.97;98892.41;5414191;26;20332;-76
2024/04/16 04:57:32;;;;;;;5.87;3.27;;;;;;;7.72;76.37;98906.03;5415719;26;20235;-77
2024/04/16 04:59:57;;;;;;;7.10;3.13;;;;;;;7.41;77.17;98913.09;5414549;26;20236;-77
2024/04/16 05:02:25;;;;;;;4.00;3.00;;;;;;;7.53;77.31;98897.13;5414539;26;20271;-76
2024/04/16 05:04:53;;;;;;;7.67;2.80;;;;;;;7.56;77.24;98890.09;5421332;26;20272;-74
2024/04/16 05:07:21;;;;;;;6.93;2.37;;;;;;;7.55;75.68;98892.72;5421436;26;20758;-76
2024/04/16 05:09:49;;;;;;;6.40;2.40;;;;;;;7.72;75.49;98925.97;5426466;26;20236;-75
2024/04/16 05:12:17;;;;;;;7.93;2.77;;;;;;;7.80;75.39;98936.13;5414493;26;20270;-75
2024/04/16 05:14:42;;;;;;;5.43;2.23;;;;;;;7.87;75.58;98943.66;5415483;26;20230;-76
2024/04/16 05:17:10;;;;;;;3.57;2.70;;;;;;;7.92;74.94;98949.56;5413632;26;21131;-76
2024/04/16 05:19:35;;;;;;;8.10;3.03;;;;;;;7.95;75.34;98957.25;5414219;26;20237;-77
2024/04/16 05:22:06;;;;;;;7.20;2.47;;;;;;;7.74;75.29;98973.53;5415197;26;20323;-75
2024/04/16 05:24:34;;;;;;;4.67;2.33;;;;;;;7.72;75.57;98970.13;5414372;26;20268;-75
2024/04/16 05:27:03;;;;;;;7.27;3.30;;;;;;;7.82;75.22;98978.47;5412416;26;20249;-76
2024/04/16 05:29:29;;;;;;;4.83;2.70;;;;;;;7.82;75.75;98966.34;5412364;26;20385;-77
2024/04/16 05:31:57;;;;;;;3.47;2.40;;;;;;;7.68;75.60;98969.38;5414365;26;20579;-79
2024/04/16 05:34:22;;;;;;;5.37;2.60;;;;;;;7.61;75.58;98959.22;5415716;26;20298;-77
2024/04/16 05:36:50;;;;;;;6.77;2.40;;;;;;;7.70;75.51;98949.38;5415766;26;20235;-78
2024/04/16 05:39:18;;;;;;;8.07;3.30;;;;;;;7.69;75.45;98958.09;5414674;26;20239;-77
2024/04/16 05:41:46;;;;;;;4.07;3.10;;;;;;;7.60;75.23;98947.97;5415318;26;20742;-76
2024/04/16 05:44:12;;;;;;;7.93;3.23;;;;;;;7.59;75.64;98943.69;5414145;26;20749;-77
2024/04/16 05:46:40;;;;;;;4.47;2.87;;;;;;;7.44;76.01;98934.63;5413930;26;20238;-77
2024/04/16 05:49:05;;;;;;;5.27;3.47;;;;;;;7.71;75.01;98909.53;5413740;26;20236;-76
2024/04/16 05:51:33;;;;;;;7.47;3.57;;;;;;;7.74;75.25;98906.84;5414327;26;20569;-77
2024/04/16 05:54:00;;;;;;;4.03;3.40;;;;;;;7.86;75.24;98904.75;5413000;26;20263;-77
2024/04/16 05:56:31;;;;;;;8.27;4.13;;;;;;;7.92;75.29;98897.59;5413187;26;20265;-77
2024/04/16 05:58:56;;;;;;;3.30;2.87;;;;;;;7.90;74.21;98920.19;5413421;26;20283;-79
2024/04/16 06:01:24;;;;;;;6.90;3.53;;;;;;;7.83;74.59;98939.47;5415353;26;20281;-78
2024/04/16 06:03:50;;;;;;;3.57;3.27;;;;;;;7.93;74.41;98929.63;5415799;26;20272;-78
2024/04/16 06:06:17;;;;;;;3.57;3.33;;;;;;;7.86;73.92;98923.78;5415294;26;20237;-76
2024/04/16 06:08:43;;;;;;;4.27;2.80;;;;;;;7.93;73.37;98946.06;5429564;26;20270;-76
2024/04/16 06:11:11;;;;;;;4.77;3.37;;;;;;;7.81;73.70;98956.84;5416609;26;20237;-79
2024/04/16 06:13:39;;;;;;;7.03;4.07;;;;;;;8.04;75.53;98940.50;5420160;26;20283;-78
2024/04/16 06:16:07;;;;;;;3.83;3.03;;;;;;;7.96;73.92;98963.31;5416396;26;20287;-78
2024/04/16 06:18:32;;;;;;;4.47;3.43;;;;;;;7.95;74.12;98966.81;5419600;26;20575;-76
2024/04/16 06:21:01;;;;;;;5.43;3.40;;;;;;;7.93;74.02;98966.00;5426304;26;20319;-78
2024/04/16 06:23:27;;;;;;;6.13;3.13;;;;;;;7.81;72.71;98992.34;5414708;26;20236;-76
2024/04/16 06:25:55;;;;;;;5.47;3.70;;;;;;;7.87;74.00;99005.16;5415718;26;20292;-78
2024/04/16 06:28:21;;;;;;;5.43;3.27;;;;;;;7.94;73.87;98997.13;5415797;26;20234;-76
2024/04/16 06:30:51;;;;;;;5.03;3.10;;;;;;;7.93;73.64;99007.59;5415320;26;20282;-78
2024/04/16 06:33:18;;;;;;;3.33;2.80;;;;;;;7.81;74.03;99023.53;5415728;26;20236;-77
2024/04/16 06:35:46;;;;;;;4.10;2.60;;;;;;;7.68;73.32;99017.88;5415683;26;20580;-78
2024/04/16 06:38:12;;;;;;;3.20;2.90;;;;;;;7.63;74.05;99032.72;5413887;26;20731;-78
2024/04/16 06:40:40;;;;;;;5.20;3.00;;;;;;;7.85;73.52;99025.13;5415625;26;20290;-78
2024/04/16 06:43:05;;;;;;;3.67;3.20;;;;;;;7.96;73.41;99023.06;5415790;26;20239;-78
2024/04/16 06:45:33;;;;;;;3.00;2.70;;;;;;;7.86;73.47;99027.69;5414635;26;20241;-77
2024/04/16 06:48:01;;;;;;;4.00;2.87;;;;;;;7.71;73.95;99034.22;5415197;26;20231;-76
2024/04/16 06:50:29;;;;;;;2.83;2.63;;;;;;;7.92;73.95;99024.06;5414582;26;20746;-77
2024/04/16 06:52:55;;;;;;;3.00;2.70;;;;;;;7.86;73.25;99037.25;5415582;26;20280;-79
2024/04/16 06:55:23;;;;;;;3.53;2.70;;;;;;;7.70;73.58;99048.09;5416296;26;20244;-79
2024/04/16 06:57:48;;;;;;;2.97;2.47;;;;;;;7.92;73.55;99034.44;5428263;26;20230;-78
2024/04/16 07:00:17;;;;;;;2.93;2.63;;;;;;;7.70;74.16;99037.69;5415702;26;21086;-79
2024/04/16 07:02:42;;;;;;;2.90;2.00;;;;;;;7.72;73.94;99037.66;5430505;26;20283;-79
2024/04/16 07:05:13;;;;;;;2.60;1.90;;;;;;;7.86;74.15;99024.25;5415676;26;20633;-78
2024/04/16 07:07:41;;;;;;;3.33;2.20;;;;;;;7.63;73.55;99043.09;5415374;26;20229;-78
2024/04/16 07:10:07;;;;;;;2.70;2.00;;;;;;;7.71;74.27;99035.94;5414582;26;20270;-79
2024/04/16 07:12:35;;;;;;;4.23;2.07;;;;;;;7.49;73.86;99043.50;5416198;26;20240;-80
2024/04/16 07:15:00;;;;;;;3.30;2.03;;;;;;;7.41;74.79;99042.88;5415134;26;20572;-78
2024/04/16 07:17:30;;;;;;;2.40;2.20;;;;;;;7.40;76.03;99018.69;5415641;26;20283;-80
2024/04/16 07:19:56;;;;;;;2.73;2.20;;;;;;;7.71;75.90;98994.38;5416310;26;20288;-80
2024/04/16 07:22:27;;;;;;;2.43;2.23;;;;;;;7.47;75.86;99011.56;5415378;26;20368;-79
2024/04/16 07:24:54;;;;;;;2.77;2.00;;;;;;;7.60;76.32;98981.75;5416590;26;20263;-79
2024/04/16 07:27:23;;;;;;;3.47;2.67;;;;;;;7.67;76.70;98969.41;5415305;26;20233;-80
2024/04/16 07:29:48;;;;;;;4.00;2.50;;;;;;;7.67;76.50;98972.88;5427933;26;20239;-79
2024/04/16 07:32:16;;;;;;;4.27;2.60;;;;;;;7.77;76.90;98955.25;5415861;26;20286;-79
2024/04/16 07:34:42;;;;;;;2.60;2.20;;;;;;;7.91;76.30;98944.44;5417004;26;20242;-80
2024/04/16 07:37:10;;;;;;;2.70;2.00;;;;;;;7.82;75.92;98955.94;5417121;26;20799;-79
2024/04/16 07:39:38;;;;;;;3.40;2.70;;;;;;;8.05;75.78;98944.81;5412759;26;20746;-79
2024/04/16 07:42:06;;;;;;;2.80;2.57;;;;;;;8.12;75.46;98945.47;5416597;26;20241;-80
2024/04/16 07:44:35;;;;;;;2.97;2.30;;;;;;;8.38;74.37;98960.19;5431180;26;20236;-82
2024/04/16 07:47:03;;;;;;;3.40;2.83;;;;;;;8.63;74.91;98967.19;5415593;26;20287;-80
2024/04/16 07:49:28;;;;;;;2.77;2.57;;;;;;;8.43;74.48;98986.06;5417721;26;20239;-80
2024/04/16 07:51:57;;;;;;;4.40;3.00;;;;;;;8.45;74.97;98989.47;5418026;26;20287;-80
2024/04/16 07:54:22;;;;;;;2.40;2.10;;;;;;;8.63;72.94;99008.81;5417385;26;20266;-78
2024/04/16 07:56:53;;;;;;;2.80;2.40;;;;;;;8.63;72.03;99045.22;5405021;26;20278;-79
2024/04/16 07:59:18;;;;;;;2.77;2.10;;;;;;;8.55;71.80;99058.47;5420577;26;20292;-78
2024/04/16 08:01:46;;;;;;;4.73;2.17;;;;;;;8.50;71.45;99091.56;5419209;26;20302;-79
2024/04/16 08:04:12;;;;;;;3.37;2.40;;;;;;;8.77;71.26;99087.22;5421762;26;20583;-79
2024/04/16 08:06:40;;;;;;;1.90;1.77;;;;;;;8.83;70.45;99109.59;5423502;26;20296;-80
2024/04/16 08:09:05;;;;;;;2.77;1.97;;;;;;;9.04;70.21;99126.22;5420743;26;20241;-79
2024/04/16 08:11:33;;;;;;;2.57;1.90;;;;;;;9.11;70.43;99144.19;5420366;26;20309;-78
2024/04/16 08:14:01;;;;;;;2.87;1.87;;;;;;;9.08;69.87;99149.50;5417818;26;20236;-77
2024/04/16 08:16:29;;;;;;;3.77;1.93;;;;;;;9.24;70.11;99152.44;5417646;26;20233;-77
2024/04/16 08:18:55;;;;;;;4.10;2.73;;;;;;;9.42;73.65;99139.69;5416987;26;20232;-77
2024/04/16 08:21:23;;;;;;;3.73;2.00;;;;;;;9.47;69.44;99142.97;5417515;26;20230;-77
2024/04/16 08:23:51;;;;;;;2.60;1.50;;;;;;;8.89;68.02;99192.66;5417186;26;20280;-78
2024/04/16 08:26:19;;;;;;;3.23;1.63;;;;;;;8.91;68.39;99201.25;5419765;26;20279;-78
2024/04/16 08:28:45;;;;;;;2.20;2.00;;;;;;;9.00;69.24;99195.78;5426122;26;20238;-79
2024/04/16 08:31:16;;;;;;;2.03;1.60;;;;;;;8.98;68.73;99179.34;5422609;26;20277;-80
2024/04/16 08:33:41;;;;;;;2.00;1.90;;;;;;;9.03;69.42;99172.22;5424569;26;20719;-80
2024/04/16 08:36:10;;;;;;;2.07;1.83;;;;;;;9.44;71.10;99149.16;5429752;26;20284;-80
2024/04/16 08:38:36;;;;;;;2.00;1.83;;;;;;;9.58;69.33;99150.41;5420060;26;20315;-79
2024/04/16 08:41:05;;;;;;;1.47;1.40;;;;;;;9.34;66.81;99169.44;5425412;26;20245;-80
2024/04/16 08:43:33;;;;;;;3.53;1.70;;;;;;;9.23;67.78;99199.34;5429909;26;20263;-79
2024/04/16 08:46:02;;;;;;;2.60;1.97;;;;;;;9.55;68.23;99203.47;5421420;26;20230;-79
2024/04/16 08:48:31;;;;;;;2.30;1.87;;;;;;;9.65;67.65;99217.03;5422596;26;20337;-78
2024/04/16 08:51:00;;;;;;;2.30;1.50;;;;;;;9.70;66.53;99223.78;5428283;26;20237;-79
2024/04/16 08:53:27;;;;;;;3.23;1.97;;;;;;;9.82;67.56;99232.91;5428136;26;20232;-79
2024/04/16 08:55:55;;;;;;;4.87;1.80;;;;;;;9.81;65.64;99236.44;5427593;26;20236;-78
2024/04/16 08:58:20;;;;;;;1.87;1.57;;;;;;;9.67;65.84;99268.19;5429835;26;20737;-79
2024/04/16 09:00:50;;;;;;;2.30;2.10;;;;;;;9.96;65.41;99266.31;5449225;21;20300;-79
2024/04/16 09:03:16;;;;;;;2.13;1.70;;;;;;;9.57;64.41;99311.06;5422915;26;20735;-79
2024/04/16 09:05:48;;;;;;;2.57;1.67;;;;;;;9.89;66.26;99293.50;5422107;26;20316;-80
2024/04/16 09:08:13;;;;;;;2.47;1.50;;;;;;;10.04;64.42;99298.19;5420743;26;20339;-80
2024/04/16 09:10:43;;;;;;;2.97;1.73;;;;;;;9.90;64.43;99327.34;5421118;26;20258;-80
2024/04/16 09:13:10;;;;;;;2.80;1.43;;;;;;;10.00;64.75;99324.41;5422086;26;20265;-82
2024/04/16 09:15:40;;;;;;;1.80;1.70;;;;;;;9.96;63.52;99328.88;5421510;26;20241;-81
2024/04/16 09:18:06;;;;;;;3.63;1.70;;;;;;;10.34;65.94;99321.50;5420565;26;20241;-79
2024/04/16 09:20:35;;;;;;;1.57;1.47;;;;;;;10.41;63.80;99323.00;5417387;26;20306;-79
2024/04/16 09:23:03;;;;;;;1.87;1.40;;;;;;;10.58;62.16;99348.44;5419673;26;20236;-78
2024/04/16 09:25:31;;;;;;;2.13;1.23;;;;;;;10.73;64.46;99363.56;5421962;26;20346;-80
2024/04/16 09:27:57;;;;;;;2.77;1.97;;;;;;;10.79;62.85;99375.53;5418633;26;20268;-80
2024/04/16 09:30:26;;;;;;;1.97;1.43;;;;;;;10.92;63.06;99379.41;5419799;26;20736;-78
2024/04/16 09:32:57;;;;;;;2.10;1.60;;;;;;;10.38;61.63;99414.38;5419646;26;20268;-80
2024/04/16 09:35:27;;;;;;;2.57;1.30;;;;;;;10.76;65.40;99399.13;5418664;26;20804;-77
2024/04/16 09:37:58;;;;;;;2.23;1.40;;;;;;;10.60;61.87;99397.97;5419555;26;20238;-78
2024/04/16 09:40:30;;;;;;;1.80;1.30;;;;;;;10.38;60.83;99430.03;5420889;26;20748;-81
2024/04/16 09:42:57;;;;;;;2.90;1.50;;;;;;;10.56;62.48;99425.09;5421799;26;20236;-80
2024/04/16 09:45:25;;;;;;;2.33;1.33;;;;;;;10.82;61.37;99422.41;5418259;26;20234;-79
2024/04/16 09:47:51;;;;;;;3.40;1.50;;;;;;;11.05;62.20;99432.00;5418344;26;20761;-79
2024/04/16 09:50:22;;;;;;;2.23;1.53;;;;;;;11.04;59.80;99455.56;5419281;26;20343;-78
2024/04/16 09:52:50;;;;;;;2.00;1.30;;;;;;;11.27;60.94;99454.72;5418967;26;20237;-79
2024/04/16 09:55:20;;;;;;;1.77;1.30;;;;;;;11.00;59.05;99474.84;5419325;26;20342;-79
2024/04/16 09:57:49;;;;;;;1.93;1.63;;;;;;;11.26;59.39;99477.38;5420874;26;20235;-80
2024/04/16 10:00:18;;;;;;;2.50;1.40;;;;;;;11.22;58.06;99490.59;5418960;26;20243;-80
2024/04/16 10:02:45;;;;;;;1.10;1.00;;;;;;;11.42;59.67;99488.09;5421325;26;20269;-79
2024/04/16 10:05:14;;;;;;;2.27;1.50;;;;;;;11.33;56.96;99536.31;5422909;26;20242;-80
2024/04/16 10:07:41;;;;;;;1.63;1.10;;;;;;;11.12;57.38;99574.53;5421105;26;20238;-79
2024/04/16 10:10:10;;;;;;;1.90;1.40;;;;;;;11.08;56.55;99574.66;5420296;26;20292;-81
2024/04/16 10:12:37;;;;;;;1.67;1.23;;;;;;;11.17;56.34;99584.81;5420879;26;20272;-78
2024/04/16 10:15:09;;;;;;;1.97;1.10;;;;;;;11.05;56.23;99612.19;5419972;26;20238;-80
2024/04/16 10:17:49;;;;;;;1.87;1.30;;;;;;;11.41;58.80;99590.91;5422957;26;20241;-79
2024/04/16 10:20:20;;;;;;;1.77;1.30;;;;;;;11.36;57.37;99585.00;5422217;26;20277;-79
2024/04/16 10:22:51;;;;;;;1.63;1.30;;;;;;;11.58;59.15;99556.31;5418846;26;20311;-80
2024/04/16 10:25:30;;;;;;;1.30;1.20;;;;;;;11.02;58.55;99578.38;5416209;26;20241;-76
2024/04/16 10:28:01;;;;;;;2.13;1.30;;;;;;;10.92;58.15;99564.78;5418655;26;20617;-79
2024/04/16 10:30:37;;;;;;;1.83;1.53;;;;;;;11.10;57.73;99558.06;5417760;26;20242;-80
2024/04/16 10:33:04;;;;;;;1.43;1.10;;;;;;;11.32;58.97;99554.69;5416885;26;20232;-77
2024/04/16 10:35:34;;;;;;;1.30;1.00;;;;;;;11.54;57.80;99541.66;4662654;26;10000646;-76
2024/04/16 10:38:01;;;;;;;1.93;1.30;;;;;;;11.61;58.28;99550.97;5410228;26;20235;-77
2024/04/16 10:40:31;;;;;;;0.93;0.87;;;;;;;11.70;58.12;99555.84;5414572;26;20646;-80
2024/04/16 10:42:57;;;;;;;1.07;0.97;;;;;;;11.89;58.14;99553.44;5417537;26;20273;-80
2024/04/16 10:45:28;;;;;;;1.10;1.00;;;;;;;12.06;58.98;99559.78;5412150;26;20599;-78
2024/04/16 10:48:00;;;;;;;1.33;1.17;;;;;;;11.46;57.13;99589.00;5413577;26;20269;-79
2024/04/16 10:50:25;;;;;;;1.52;1.02;;;;;;;11.68;56.92;99578.59;5412121;26;20364;-79
2024/04/16 10:52:53;;;;;;;1.27;0.70;;;;;;;11.41;55.00;99624.88;5412655;26;20262;-78
2024/04/16 10:55:19;;;;;;;1.03;0.90;;;;;;;11.06;54.79;99641.75;5413905;26;20260;-80
2024/04/16 10:57:48;;;;;;;2.60;1.73;;;;;;;11.01;56.73;99641.09;5412060;26;20238;-80
2024/04/16 11:00:13;;;;;;;1.00;0.90;;;;;;;10.95;57.38;99615.19;5412189;26;20238;-79
2024/04/16 11:02:42;;;;;;;2.57;1.60;;;;;;;11.25;59.55;99597.59;5412749;26;20239;-79
2024/04/16 11:05:10;;;;;;;8.13;1.60;;;;;;;11.41;59.22;99580.44;5412823;26;20265;-80
2024/04/16 11:07:38;;;;;;;1.70;1.20;;;;;;;11.69;60.21;99535.00;5414152;26;20277;-80
2024/04/16 11:10:05;;;;;;;1.00;0.90;;;;;;;11.91;59.57;99514.13;5413666;26;20277;-79
2024/04/16 11:12:33;;;;;;;0.70;0.70;;;;;;;12.03;58.31;99529.38;5415244;26;20280;-80
2024/04/16 11:14:58;;;;;;;1.60;0.90;;;;;;;12.05;58.00;99538.00;5413645;26;20254;-79
2024/04/16 11:17:28;;;;;;;1.40;0.70;;;;;;;11.72;57.07;99579.34;5413048;26;20281;-79
2024/04/16 11:19:55;;;;;;;0.90;0.80;;;;;;;11.96;60.41;99568.91;5416268;26;20234;-79
2024/04/16 11:22:26;;;;;;;0.70;0.67;;;;;;;12.23;58.75;99525.06;5413812;26;20242;-77
2024/04/16 11:24:51;;;;;;;1.40;0.63;;;;;;;12.04;56.12;99556.38;5412746;26;20288;-80
2024/04/16 11:27:20;;;;;;;0.77;0.60;;;;;;;11.89;55.34;99617.94;5416800;26;20305;-80
2024/04/16 11:29:46;;;;;;;0.57;0.30;;;;;;;11.46;54.82;99648.25;5417196;26;20237;-79
2024/04/16 11:32:14;;;;;;;0.80;0.53;;;;;;;11.46;56.25;99648.25;5416936;26;20238;-79
2024/04/16 11:34:41;;;;;;;1.33;1.20;;;;;;;11.10;58.40;99653.84;5416261;26;20326;-78
2024/04/16 11:37:09;;;;;;;0.50;0.50;;;;;;;11.30;60.38;99596.53;5416978;26;20293;-81
2024/04/16 11:39:39;;;;;;;0.70;0.70;;;;;;;11.40;61.40;99572.69;5416421;26;20280;-80
2024/04/16 11:42:07;;;;;;;0.40;0.40;;;;;;;11.59;60.30;99536.25;5402737;26;20235;-80
2024/04/16 11:44:33;;;;;;;0.70;0.33;;;;;;;11.48;60.22;99529.69;5417086;26;20227;-81